createdAt,value
2022-08-10T00:00:15.790Z,98755.97
2022-08-10T00:03:17.687Z,98747.41
2022-08-10T00:06:19.577Z,98750.75
2022-08-10T00:09:23.907Z,98750.81
2022-08-10T00:12:53.388Z,98744.50
2022-08-10T00:15:54.108Z,98751.81
2022-08-10T00:18:56.661Z,98750.00
2022-08-10T00:21:58.764Z,98746.19
2022-08-10T00:25:00.896Z,98758.19
2022-08-10T00:28:04.296Z,98752.19
2022-08-10T00:31:07.322Z,98757.22
2022-08-10T00:34:09.231Z,98754.56
2022-08-10T00:37:11.127Z,98747.91
2022-08-10T00:40:13.654Z,98756.69
2022-08-10T00:43:15.620Z,98748.25
2022-08-10T00:46:25.675Z,98753.09
2022-08-10T00:49:28.715Z,98758.56
2022-08-10T00:52:31.519Z,98752.09
2022-08-10T00:55:33.957Z,98753.41
2022-08-10T00:58:55.777Z,98754.94
2022-08-10T01:02:09.045Z,98755.28
2022-08-10T01:05:19.939Z,98751.47
2022-08-10T01:08:30.903Z,98760.22
2022-08-10T01:12:38.673Z,98762.56
2022-08-10T01:15:30.859Z,98756.13
2022-08-10T01:18:41.022Z,98754.13
2022-08-10T01:22:20.973Z,98757.47
2022-08-10T01:26:12.562Z,98752.31
2022-08-10T01:29:43.454Z,98749.69
2022-08-10T01:33:04.210Z,98748.03
2022-08-10T01:36:11.942Z,98749.84
2022-08-10T01:39:19.884Z,98749.00
2022-08-10T01:42:23.088Z,98755.13
2022-08-10T01:45:25.835Z,98756.13
2022-08-10T01:48:32.471Z,98748.66
2022-08-10T01:51:39.688Z,98745.38
2022-08-10T02:03:28.398Z,98754.97
2022-08-10T02:06:31.442Z,98747.69
2022-08-10T02:09:36.794Z,98757.78
2022-08-10T02:12:40.085Z,98753.81
2022-08-10T02:16:02.035Z,98746.00
2022-08-10T02:19:07.596Z,98741.38
2022-08-10T02:22:45.696Z,98747.69
2022-08-10T02:25:40.960Z,98745.34
2022-08-10T02:28:46.173Z,98737.41
2022-08-10T02:31:49.575Z,98745.69
2022-08-10T02:34:53.790Z,98744.69
2022-08-10T02:38:00.641Z,98746.69
2022-08-10T02:42:18.623Z,98739.56
2022-08-10T02:45:25.475Z,98742.72
2022-08-10T02:48:24.087Z,98742.06
2022-08-10T02:52:08.190Z,98743.06
2022-08-10T02:55:06.101Z,98742.72
2022-08-10T02:58:46.404Z,98740.72
2022-08-10T03:01:49.909Z,98750.50
2022-08-10T03:04:58.318Z,98752.31
2022-08-10T03:08:02.838Z,98762.06
2022-08-10T03:11:06.620Z,98762.25
2022-08-10T03:14:10.418Z,98767.88
2022-08-10T03:17:12.824Z,98767.53
2022-08-10T03:20:38.057Z,98774.97
2022-08-10T03:23:38.480Z,98764.50
2022-08-10T03:26:41.097Z,98763.19
2022-08-10T03:30:31.931Z,98764.03
2022-08-10T03:33:10.458Z,98764.50
2022-08-10T03:36:43.119Z,98765.66
2022-08-10T03:39:35.973Z,98764.34
2022-08-10T03:42:39.206Z,98767.31
2022-08-10T03:45:54.492Z,98772.78
2022-08-10T03:49:00.918Z,98781.72
2022-08-10T03:52:03.558Z,98783.19
2022-08-10T03:55:05.915Z,98789.84
2022-08-10T03:58:08.271Z,98788.50
2022-08-10T04:01:10.579Z,98788.72
2022-08-10T04:04:15.463Z,98786.09
2022-08-10T04:07:19.773Z,98792.69
2022-08-10T04:10:21.797Z,98798.66
2022-08-10T04:13:24.121Z,98801.63
2022-08-10T04:16:26.002Z,98805.94
2022-08-10T04:19:30.277Z,98802.81
2022-08-10T04:22:33.202Z,98803.63
2022-08-10T04:25:36.613Z,98797.78
2022-08-10T04:28:38.737Z,98786.66
2022-08-10T04:31:41.521Z,98794.75
2022-08-10T04:34:44.657Z,98791.47
2022-08-10T04:37:47.874Z,98794.13
2022-08-10T04:40:52.885Z,98802.31
2022-08-10T04:43:54.868Z,98800.03
2022-08-10T04:46:58.243Z,98798.47
2022-08-10T04:50:02.395Z,98799.16
2022-08-10T04:53:06.976Z,98795.41
2022-08-10T04:56:09.042Z,98793.44
2022-08-10T04:59:14.362Z,98794.47
2022-08-10T05:02:29.581Z,98794.63
2022-08-10T05:05:33.708Z,98783.75
2022-08-10T05:08:36.179Z,98796.41
2022-08-10T05:11:38.032Z,98804.09
2022-08-10T05:14:40.003Z,98807.38
2022-08-10T05:18:03.337Z,98810.41
2022-08-10T05:21:05.578Z,98807.38
2022-08-10T05:24:07.745Z,98797.47
2022-08-10T05:27:10.654Z,98799.69
2022-08-10T05:30:16.425Z,98790.91
2022-08-10T05:33:18.527Z,98791.81
2022-08-10T05:36:20.779Z,98787.88
2022-08-10T05:39:31.980Z,98785.38
2022-08-10T05:42:34.511Z,98789.31
2022-08-10T05:46:19.267Z,98794.53
2022-08-10T05:49:01.967Z,98794.88
2022-08-10T05:52:04.673Z,98791.94
2022-08-10T05:55:08.936Z,98783.31
2022-08-10T05:58:15.338Z,98795.34
2022-08-10T06:01:20.847Z,98792.34
2022-08-10T06:04:29.749Z,98794.69
2022-08-10T06:07:32.676Z,98792.16
2022-08-10T06:10:38.955Z,98802.81
2022-08-10T06:14:28.579Z,98803.03
2022-08-10T06:17:32.077Z,98803.91
2022-08-10T06:20:38.106Z,98797.63
2022-08-10T06:23:41.189Z,98801.72
2022-08-10T06:26:45.350Z,98789.84
2022-08-10T06:29:50.203Z,98791.31
2022-08-10T06:32:56.804Z,98798.19
2022-08-10T06:36:02.138Z,98802.63
2022-08-10T06:39:30.223Z,98800.25
2022-08-10T06:42:42.899Z,98800.75
2022-08-10T06:46:07.997Z,98798.09
2022-08-10T06:49:13.712Z,98804.78
2022-08-10T06:52:18.512Z,98791.41
2022-08-10T06:55:22.982Z,98799.47
2022-08-10T06:58:48.502Z,98799.72
2022-08-10T07:01:59.262Z,98796.00
2022-08-10T07:05:03.974Z,98798.88
2022-08-10T07:08:06.650Z,98791.69
2022-08-10T07:11:11.943Z,98795.19
2022-08-10T07:14:18.601Z,98791.06
2022-08-10T07:17:24.165Z,98799.91
2022-08-10T07:20:26.931Z,98786.06
2022-08-10T07:23:57.053Z,98785.25
2022-08-10T07:26:56.194Z,98786.09
2022-08-10T07:29:59.404Z,98789.16
2022-08-10T07:33:02.578Z,98779.31
2022-08-10T07:36:09.189Z,98796.47
2022-08-10T07:39:13.754Z,98787.66
2022-08-10T07:42:20.047Z,98789.13
2022-08-10T07:45:24.640Z,98791.66
2022-08-10T07:48:29.414Z,98798.59
2022-08-10T07:51:36.341Z,98811.50
2022-08-10T07:54:44.878Z,98797.78
2022-08-10T07:57:49.917Z,98796.84
2022-08-10T08:00:54.497Z,98795.41
2022-08-10T08:04:10.510Z,98797.97
2022-08-10T08:07:18.338Z,98795.13
2022-08-10T08:10:25.942Z,98805.78
2022-08-10T08:13:28.961Z,98810.97
2022-08-10T08:16:33.333Z,98816.25
2022-08-10T08:19:40.977Z,98805.63
2022-08-10T08:24:09.034Z,98795.72
2022-08-10T08:26:11.900Z,98793.44
2022-08-10T08:29:17.767Z,98793.13
2022-08-10T08:32:22.905Z,98796.81
2022-08-10T08:35:26.418Z,98806.13
2022-08-10T08:38:34.983Z,98794.94
2022-08-10T08:42:08.348Z,98805.53
2022-08-10T08:46:01.263Z,98787.31
2022-08-10T08:50:05.046Z,98784.56
2022-08-10T08:54:01.838Z,98790.44
2022-08-10T08:57:08.738Z,98784.31
2022-08-10T09:00:57.383Z,98793.13
2022-08-10T09:04:24.971Z,98788.16
2022-08-10T09:08:02.046Z,98787.81
2022-08-10T09:11:19.577Z,98781.97
2022-08-10T09:14:25.777Z,98782.47
2022-08-10T09:17:49.058Z,98781.44
2022-08-10T09:21:25.094Z,98778.88
2022-08-10T09:24:46.912Z,98771.22
2022-08-10T09:27:57.220Z,98781.03
2022-08-10T09:31:22.793Z,98769.22
2022-08-10T09:36:24.248Z,98778.72
2022-08-10T09:38:44.668Z,98768.75
2022-08-10T09:41:58.147Z,98763.72
2022-08-10T09:45:09.427Z,98759.28
2022-08-10T09:48:33.523Z,98768.47
2022-08-10T09:51:53.723Z,98753.75
2022-08-10T09:54:59.956Z,98762.63
2022-08-10T09:58:36.900Z,98756.56
2022-08-10T10:02:03.615Z,98744.91
2022-08-10T10:05:25.973Z,98749.47
2022-08-10T10:08:58.256Z,98760.56
2022-08-10T10:12:51.535Z,98738.06
2022-08-10T10:16:04.377Z,98743.63
2022-08-10T10:19:27.951Z,98739.59
2022-08-10T10:22:42.991Z,98735.22
2022-08-10T10:26:18.327Z,98728.78
2022-08-10T10:29:56.199Z,98727.19
2022-08-10T10:33:03.639Z,98732.47
2022-08-10T10:36:06.932Z,98730.03
2022-08-10T10:39:14.951Z,98722.50
2022-08-10T10:42:45.109Z,98708.34
2022-08-10T10:46:11.067Z,98708.84
2022-08-10T10:49:44.434Z,98715.22
2022-08-10T10:53:19.325Z,98712.75
2022-08-10T10:56:56.646Z,98715.63
2022-08-10T11:00:11.518Z,98718.31
2022-08-10T11:03:19.616Z,98714.28
2022-08-10T11:06:39.858Z,98702.78
2022-08-10T11:10:05.187Z,98710.97
2022-08-10T11:14:25.928Z,98703.72
2022-08-10T11:17:19.726Z,98705.38
2022-08-10T11:20:33.355Z,98703.75
2022-08-10T11:24:44.387Z,98707.09
2022-08-10T11:27:23.655Z,98709.38
2022-08-10T11:30:45.197Z,98699.28
2022-08-10T11:34:11.645Z,98691.50
2022-08-10T11:37:27.338Z,98691.22
2022-08-10T11:40:39.789Z,98694.38
2022-08-10T11:43:49.633Z,98688.06
2022-08-10T11:46:58.081Z,98702.47
2022-08-10T11:50:12.191Z,98693.28
2022-08-10T11:53:18.039Z,98688.56
2022-08-10T11:56:32.506Z,98696.19
2022-08-10T11:59:58.523Z,98692.81
2022-08-10T12:03:04.181Z,98692.25
2022-08-10T12:06:10.026Z,98692.53
2022-08-10T12:10:08.871Z,98691.84
2022-08-10T12:12:52.461Z,98685.75
2022-08-10T12:16:08.113Z,98672.97
2022-08-10T12:19:24.522Z,98670.13
2022-08-10T12:23:08.361Z,98676.03
2022-08-10T12:26:10.344Z,98674.13
2022-08-10T12:29:27.058Z,98670.69
2022-08-10T12:33:03.286Z,98664.50
2022-08-10T12:36:22.460Z,98665.75
2022-08-10T12:39:30.663Z,98653.34
2022-08-10T12:42:45.437Z,98667.13
2022-08-10T12:46:30.424Z,98666.44
2022-08-10T12:50:29.560Z,98663.06
2022-08-10T12:53:54.924Z,98655.84
2022-08-10T12:57:03.661Z,98645.91
2022-08-10T13:00:17.116Z,98666.53
2022-08-10T13:04:22.883Z,98671.53
2022-08-10T13:06:49.987Z,98664.84
2022-08-10T13:09:55.524Z,98659.41
2022-08-10T13:12:59.849Z,98658.16
2022-08-10T13:16:03.712Z,98653.72
2022-08-10T13:19:06.709Z,98659.47
2022-08-10T13:22:09.836Z,98660.22
2022-08-10T13:25:12.649Z,98642.84
2022-08-10T13:28:37.531Z,98639.16
2022-08-10T13:32:04.264Z,98643.22
2022-08-10T13:35:12.184Z,98629.19
2022-08-10T13:38:20.403Z,98626.44
2022-08-10T13:41:26.764Z,98631.13
2022-08-10T13:44:34.585Z,98637.06
2022-08-10T13:47:48.179Z,98637.06
2022-08-10T13:50:53.455Z,98636.47
2022-08-10T13:53:58.534Z,98621.53
2022-08-10T13:57:00.940Z,98627.66
2022-08-10T14:00:34.691Z,98622.66
2022-08-10T14:03:35.299Z,98616.75
2022-08-10T14:06:40.595Z,98617.84
2022-08-10T14:09:47.818Z,98610.88
2022-08-10T14:12:51.209Z,98602.06
2022-08-10T14:15:53.642Z,98613.50
2022-08-10T14:18:59.712Z,98608.41
2022-08-10T14:22:02.213Z,98612.84
2022-08-10T14:25:09.469Z,98607.03
2022-08-10T14:28:11.803Z,98605.84
2022-08-10T14:31:19.822Z,98604.34
2022-08-10T14:36:21.386Z,98603.06
2022-08-10T14:37:59.023Z,98612.38
2022-08-10T14:41:05.339Z,98614.34
2022-08-10T14:44:10.260Z,98599.28
2022-08-10T14:47:51.305Z,98604.53
2022-08-10T14:50:36.083Z,98600.88
2022-08-10T14:53:38.783Z,98600.81
2022-08-10T14:56:41.277Z,98602.78
2022-08-10T15:00:24.609Z,98596.94
2022-08-10T15:03:11.225Z,98590.53
2022-08-10T15:06:34.874Z,98587.53
2022-08-10T15:10:01.370Z,98593.03
2022-08-10T15:13:33.596Z,98601.13
2022-08-10T15:16:34.143Z,98589.44
2022-08-10T15:20:02.638Z,98596.78
2022-08-10T15:23:31.152Z,98600.38
2022-08-10T15:26:32.733Z,98595.13
2022-08-10T15:29:37.104Z,98582.66
2022-08-10T15:33:21.270Z,98580.59
2022-08-10T15:37:36.993Z,98581.66
2022-08-10T15:40:31.096Z,98584.06
2022-08-10T15:43:44.433Z,98584.41
2022-08-10T15:47:02.748Z,98585.63
2022-08-10T15:50:08.329Z,98588.06
2022-08-10T15:53:16.786Z,98569.75
2022-08-10T15:56:28.536Z,98582.47
2022-08-10T15:59:39.136Z,98585.31
2022-08-10T16:02:52.550Z,98579.16
2022-08-10T16:06:02.379Z,98582.94
2022-08-10T16:10:10.845Z,98581.19
2022-08-10T16:12:59.291Z,98583.66
2022-08-10T16:16:07.706Z,98571.69
2022-08-10T16:19:24.128Z,98577.47
2022-08-10T16:22:36.495Z,98578.66
2022-08-10T16:25:51.320Z,98573.03
2022-08-10T16:29:06.739Z,98578.53
2022-08-10T16:32:09.105Z,98583.44
2022-08-10T16:35:16.981Z,98583.44
2022-08-10T16:38:20.517Z,98578.19
2022-08-10T16:42:05.276Z,98585.88
2022-08-10T16:44:55.195Z,98587.06
2022-08-10T16:47:58.084Z,98592.06
2022-08-10T16:51:02.546Z,98580.72
2022-08-10T16:54:05.498Z,98586.22
2022-08-10T16:57:10.373Z,98590.34
2022-08-10T17:00:14.090Z,98583.56
2022-08-10T17:03:22.757Z,98589.50
2022-08-10T17:07:08.644Z,98585.22
2022-08-10T17:10:15.658Z,98586.91
2022-08-10T17:17:49.996Z,98584.69
2022-08-10T18:03:36.143Z,98602.53
2022-08-10T18:06:38.919Z,98612.88
2022-08-10T18:09:45.181Z,98605.25
2022-08-10T18:12:49.998Z,98604.91
2022-08-10T18:15:52.431Z,98612.06
2022-08-10T18:19:00.226Z,98615.94
2022-08-10T18:22:03.735Z,98622.19
2022-08-10T18:25:06.823Z,98621.75
2022-08-10T18:28:14.375Z,98625.44
2022-08-10T18:31:20.663Z,98631.84
2022-08-10T18:34:23.115Z,98630.28
2022-08-10T18:37:26.446Z,98631.53
2022-08-10T18:40:35.775Z,98632.75
2022-08-10T18:44:07.109Z,98631.25
2022-08-10T18:47:15.401Z,98636.81
2022-08-10T18:50:21.462Z,98632.78
2022-08-10T18:53:48.461Z,98637.75
2022-08-10T18:56:58.532Z,98638.63
2022-08-10T19:00:08.772Z,98637.06
2022-08-10T19:03:11.917Z,98636.72
2022-08-10T19:06:49.533Z,98634.31
2022-08-10T19:09:57.166Z,98639.88
2022-08-10T19:13:05.153Z,98640.06
2022-08-10T19:26:33.038Z,98639.88
2022-08-10T19:30:08.282Z,98638.66
2022-08-10T19:33:09.110Z,98640.97
2022-08-10T19:36:35.136Z,98640.97
2022-08-10T19:39:52.893Z,98640.53
2022-08-10T19:42:59.129Z,98648.75
2022-08-10T19:46:11.823Z,98652.06
2022-08-10T19:49:27.737Z,98647.53
2022-08-10T19:52:46.351Z,98646.72
2022-08-10T19:55:55.087Z,98650.84
2022-08-10T19:59:07.516Z,98639.53
2022-08-10T20:02:11.950Z,98643.22
2022-08-10T20:05:34.818Z,98644.00
2022-08-10T20:08:48.374Z,98649.75
2022-08-10T20:12:07.168Z,98647.19
2022-08-10T20:15:10.786Z,98648.25
2022-08-10T20:18:24.137Z,98640.88
2022-08-10T20:21:30.095Z,98637.97
2022-08-10T20:24:51.956Z,98648.34
2022-08-10T20:28:21.805Z,98650.06
2022-08-10T20:31:27.868Z,98641.81
2022-08-10T20:34:46.005Z,98649.13
2022-08-10T20:38:03.383Z,98636.47
2022-08-10T20:41:33.251Z,98645.00
2022-08-10T20:45:06.226Z,98637.78
2022-08-10T20:48:29.135Z,98642.94
2022-08-10T20:51:58.561Z,98651.38
2022-08-10T20:55:08.974Z,98648.09
2022-08-10T20:58:44.981Z,98643.94
2022-08-10T21:02:13.514Z,98652.03
2022-08-10T21:05:59.214Z,98650.97
2022-08-10T21:09:09.557Z,98651.97
2022-08-10T21:12:22.146Z,98662.28
2022-08-10T21:15:41.605Z,98659.59
2022-08-10T21:19:20.665Z,98659.47
2022-08-10T21:22:38.358Z,98655.22
2022-08-10T21:25:59.175Z,98660.75
2022-08-10T21:29:37.856Z,98657.44
2022-08-10T21:33:07.524Z,98661.88
2022-08-10T21:36:19.296Z,98671.72
2022-08-10T21:39:58.224Z,98664.69
2022-08-10T21:43:50.655Z,98666.25
2022-08-10T21:47:40.021Z,98674.34
2022-08-10T21:51:05.965Z,98674.78
2022-08-10T21:54:46.904Z,98670.72
2022-08-10T21:58:34.748Z,98673.03
2022-08-10T22:05:51.481Z,98670.25
2022-08-10T22:09:18.347Z,98665.63
2022-08-10T22:12:46.782Z,98668.81
2022-08-10T22:16:17.147Z,98659.28
2022-08-10T22:19:38.274Z,98665.53
2022-08-10T22:23:19.215Z,98663.88
2022-08-10T22:27:01.248Z,98666.63
2022-08-10T22:30:25.099Z,98664.22
2022-08-10T22:34:10.563Z,98657.44
2022-08-10T22:37:53.146Z,98657.34
2022-08-10T22:41:21.141Z,98657.38
2022-08-10T22:44:42.655Z,98662.41
2022-08-10T22:48:03.120Z,98659.94
2022-08-10T22:51:08.826Z,98655.16
2022-08-10T22:54:41.980Z,98657.44
2022-08-10T22:58:06.309Z,98658.00
2022-08-10T23:02:08.105Z,98656.25
2022-08-10T23:05:08.742Z,98660.94
2022-08-10T23:09:03.612Z,98654.31
2022-08-10T23:12:11.353Z,98639.72
2022-08-10T23:15:59.418Z,98644.50
2022-08-10T23:19:17.326Z,98640.91
2022-08-10T23:22:29.487Z,98641.84
2022-08-10T23:25:33.265Z,98646.22
2022-08-10T23:28:38.769Z,98643.81
2022-08-10T23:32:06.518Z,98640.63
2022-08-10T23:36:05.514Z,98642.63
2022-08-10T23:38:35.801Z,98644.97
2022-08-10T23:41:38.638Z,98626.75
2022-08-10T23:44:46.666Z,98630.19
2022-08-10T23:47:51.865Z,98624.78
2022-08-10T23:51:03.082Z,98631.38
2022-08-10T23:54:19.067Z,98625.75
2022-08-10T23:57:23.574Z,98624.78
